Time;durP1;ratioP1;P1;durP2;ratioP2;P2;SDS_P1;SDS_P2;PMS_P1;PMS_P2;Temp;Humidity;BMP_temperature;BMP_pressure;BME280_temperature;BME280_humidity;BME280_pressure;Samples;Min_cycle;Max_cycle;Signal;HPM_P1;HPM_P2
2022/01/15 00:00:27;;;;;;;86.97;22.13;;;;;;;7.12;75.03;103425.38;4963251;28;20045;-60
2022/01/15 00:02:53;;;;;;;80.53;22.65;;;;;;;7.18;74.92;103425.81;4956780;28;20377;-59
2022/01/15 00:05:20;;;;;;;77.45;20.30;;;;;;;7.05;75.20;103431.84;4965268;28;20337;-58
2022/01/15 00:07:48;;;;;;;99.45;21.02;;;;;;;6.96;75.36;103426.00;4958279;28;20054;-58
2022/01/15 00:10:18;;;;;;;84.93;20.67;;;;;;;7.06;75.25;103423.28;4952212;28;20514;-59
2022/01/15 00:12:43;;;;;;;83.78;21.00;;;;;;;7.08;75.25;103432.03;4957503;28;20046;-58
2022/01/15 00:15:14;;;;;;;79.47;20.85;;;;;;;6.99;75.07;103423.66;4955522;28;20046;-58
2022/01/15 00:17:58;;;;;;;78.50;19.80;;;;;;;7.06;75.00;103422.38;4956262;28;20687;-60
2022/01/15 00:20:24;;;;;;;111.05;20.52;;;;;;;7.13;75.03;103412.53;4960602;28;20038;-59
2022/01/15 00:22:51;;;;;;;91.13;21.83;;;;;;;7.11;75.00;103414.09;4960671;28;20498;-58
2022/01/15 00:25:18;;;;;;;99.97;22.90;;;;;;;7.13;75.21;103407.34;4956935;28;20132;-58
2022/01/15 00:27:43;;;;;;;96.97;23.17;;;;;;;7.12;75.00;103394.25;4956344;28;20471;-56
2022/01/15 00:30:10;;;;;;;113.72;21.45;;;;;;;7.11;75.14;103395.94;4960839;28;20674;-59
2022/01/15 00:32:36;;;;;;;99.78;22.95;;;;;;;7.07;75.31;103391.38;4952943;28;20902;-58
2022/01/15 00:35:02;;;;;;;91.95;22.05;;;;;;;7.16;74.98;103393.66;4955671;28;20070;-58
2022/01/15 00:37:31;;;;;;;93.28;21.77;;;;;;;7.15;75.14;103384.97;4952574;28;20049;-58
2022/01/15 00:40:01;;;;;;;93.32;22.30;;;;;;;7.18;75.39;103390.38;4954169;28;20136;-58
2022/01/15 00:42:28;;;;;;;95.32;22.67;;;;;;;7.17;75.22;103391.19;4959113;28;20089;-57
2022/01/15 00:44:55;;;;;;;92.45;21.27;;;;;;;7.13;75.11;103389.19;4955548;28;20543;-59
2022/01/15 00:47:21;;;;;;;92.85;21.90;;;;;;;7.15;75.23;103378.88;4957140;28;20042;-59
2022/01/15 00:49:46;;;;;;;90.30;22.35;;;;;;;7.18;75.23;103372.22;4952207;28;20042;-59
2022/01/15 00:52:12;;;;;;;97.75;21.58;;;;;;;7.06;74.94;103371.41;4958917;28;20501;-60
2022/01/15 00:54:37;;;;;;;96.65;20.95;;;;;;;7.08;74.91;103376.66;4958068;28;20069;-58
2022/01/15 00:57:03;;;;;;;86.82;20.88;;;;;;;7.04;74.93;103377.25;4959373;28;20047;-58
2022/01/15 00:59:28;;;;;;;108.07;21.30;;;;;;;7.01;75.25;103377.06;4944011;28;20125;-60
2022/01/15 01:01:53;;;;;;;102.18;20.50;;;;;;;6.92;75.31;103372.16;4951545;28;20055;-58
2022/01/15 01:04:19;;;;;;;111.68;19.63;;;;;;;6.85;75.36;103367.34;4959827;28;20058;-58
2022/01/15 01:06:44;;;;;;;101.90;20.52;;;;;;;6.74;75.74;103374.41;4952266;28;20136;-59
2022/01/15 01:09:10;;;;;;;97.90;18.73;;;;;;;6.75;75.54;103368.41;4955796;28;20140;-60
2022/01/15 01:11:51;;;;;;;84.13;18.90;;;;;;;6.67;75.55;103367.00;4951700;28;20031;-58
2022/01/15 01:24:58;;;;;;;82.30;18.02;;;;;;;6.51;75.60;103351.19;4952576;28;20572;-58
2022/01/15 01:27:28;;;;;;;83.55;17.80;;;;;;;6.64;75.71;103347.75;4954931;28;20039;-59
2022/01/15 01:30:16;;;;;;;78.30;17.63;;;;;;;6.71;75.36;103345.66;4951464;28;20039;-59
2022/01/15 01:32:53;;;;;;;80.85;18.98;;;;;;;6.78;75.31;103355.66;4959596;28;20050;-59
2022/01/15 01:35:33;;;;;;;95.22;18.40;;;;;;;6.63;75.39;103344.25;4959778;28;20038;-58
2022/01/15 01:38:11;;;;;;;96.47;18.70;;;;;;;6.60;75.71;103335.34;4953049;28;20034;-57
2022/01/15 01:40:40;;;;;;;95.45;19.95;;;;;;;6.68;75.58;103336.78;4953636;28;20057;-59
2022/01/15 01:43:27;;;;;;;96.43;20.45;;;;;;;6.70;75.97;103333.50;4956496;28;20105;-58
2022/01/15 01:46:10;;;;;;;91.72;19.08;;;;;;;6.61;76.01;103340.66;4954518;28;20073;-57
2022/01/15 01:48:35;;;;;;;93.00;19.27;;;;;;;6.65;75.96;103334.00;4955030;28;20032;-59
2022/01/15 01:51:01;;;;;;;104.80;20.27;;;;;;;6.71;76.12;103331.81;4957647;28;20662;-58
2022/01/15 01:53:26;;;;;;;77.63;18.45;;;;;;;6.76;75.61;103327.84;4953039;28;20089;-60
2022/01/15 01:55:52;;;;;;;89.28;19.90;;;;;;;6.70;75.44;103330.03;4957366;28;20932;-59
2022/01/15 01:58:17;;;;;;;81.90;19.08;;;;;;;6.73;75.75;103325.03;4956854;28;20391;-59
2022/01/15 02:00:42;;;;;;;84.63;19.05;;;;;;;6.76;75.64;103320.06;4957379;28;20485;-60
2022/01/15 02:03:08;;;;;;;84.32;17.67;;;;;;;6.63;75.80;103313.16;4951062;28;20043;-60
2022/01/15 02:05:33;;;;;;;71.10;17.48;;;;;;;6.71;75.41;103311.94;4954294;28;20041;-60
2022/01/15 02:07:59;;;;;;;73.80;16.17;;;;;;;6.45;75.73;103314.47;4957836;28;20402;-60
2022/01/15 02:10:24;;;;;;;73.22;16.25;;;;;;;6.42;75.72;103314.25;4960715;28;20034;-60
2022/01/15 02:12:50;;;;;;;67.43;16.65;;;;;;;6.60;75.22;103306.84;4953438;28;20112;-58
2022/01/15 02:15:22;;;;;;;64.78;16.83;;;;;;;6.58;75.56;103308.44;4959802;28;20367;-60
2022/01/15 02:17:49;;;;;;;76.32;16.00;;;;;;;6.27;75.89;103303.75;4955473;28;20105;-60
2022/01/15 02:20:34;;;;;;;81.47;17.00;;;;;;;6.10;76.81;103305.16;4953555;28;20101;-59
2022/01/15 02:25:50;;;;;;;76.25;17.35;;;;;;;6.44;75.77;103298.03;4951157;28;20122;-59
2022/01/15 02:28:18;;;;;;;83.70;17.15;;;;;;;6.28;76.11;103289.13;4960563;28;20049;-59
2022/01/15 02:30:43;;;;;;;79.63;16.55;;;;;;;6.46;76.19;103290.38;4953417;28;20077;-59
2022/01/15 02:33:09;;;;;;;79.20;16.88;;;;;;;6.48;76.07;103286.16;4958711;28;20652;-60
2022/01/15 02:35:35;;;;;;;79.05;16.90;;;;;;;6.48;75.89;103279.31;4946464;28;20045;-59
2022/01/15 02:38:08;;;;;;;85.32;16.65;;;;;;;6.53;75.90;103274.41;4955234;28;20074;-59
2022/01/15 02:40:37;;;;;;;93.53;17.63;;;;;;;6.53;75.81;103272.72;4956815;28;20157;-60
2022/01/15 02:43:12;;;;;;;81.80;17.75;;;;;;;6.58;76.12;103264.38;4955939;28;20038;-59
2022/01/15 02:45:42;;;;;;;78.45;16.42;;;;;;;6.59;75.99;103261.00;4941365;28;20478;-59
2022/01/15 02:48:12;;;;;;;88.93;17.88;;;;;;;6.62;75.87;103258.59;4950155;28;20043;-59
2022/01/15 02:50:38;;;;;;;78.85;17.02;;;;;;;6.27;76.49;103254.53;4960587;28;20102;-60
2022/01/15 02:53:04;;;;;;;72.38;17.02;;;;;;;6.47;75.92;103258.47;4957169;28;20386;-60
2022/01/15 02:55:30;;;;;;;77.88;16.33;;;;;;;6.50;76.29;103258.69;4947207;28;20370;-60
2022/01/15 02:57:56;;;;;;;75.72;16.85;;;;;;;6.55;75.58;103251.22;4958274;28;20042;-59
2022/01/15 03:00:23;;;;;;;79.03;16.73;;;;;;;6.53;75.36;103256.28;4956873;28;20047;-59
2022/01/15 03:02:48;;;;;;;84.25;17.38;;;;;;;6.48;75.27;103255.06;4959402;28;20505;-58
2022/01/15 03:05:13;;;;;;;69.53;16.20;;;;;;;6.01;76.33;103252.72;4952065;28;20031;-59
2022/01/15 03:07:39;;;;;;;63.63;16.52;;;;;;;6.32;75.36;103245.38;4945165;28;20152;-58
2022/01/15 03:10:05;;;;;;;71.15;16.77;;;;;;;6.25;75.83;103237.97;4960846;28;20107;-59
2022/01/15 03:12:31;;;;;;;61.45;15.70;;;;;;;6.24;75.71;103235.28;4959082;28;20149;-59
2022/01/15 03:15:01;;;;;;;72.05;16.63;;;;;;;6.30;75.77;103236.59;4952178;28;20111;-60
2022/01/15 03:17:27;;;;;;;69.45;16.75;;;;;;;6.37;75.43;103233.63;4952143;28;20049;-61
2022/01/15 03:19:53;;;;;;;74.40;16.55;;;;;;;6.17;76.36;103230.47;4953051;28;20038;-59
2022/01/15 03:22:19;;;;;;;74.90;17.15;;;;;;;6.24;75.70;103225.81;4953255;28;20422;-59
2022/01/15 03:24:45;;;;;;;77.65;17.20;;;;;;;6.30;75.80;103230.50;4957248;28;20097;-60
2022/01/15 03:27:10;;;;;;;76.65;17.88;;;;;;;6.37;75.64;103235.31;4962229;28;20038;-59
2022/01/15 03:29:36;;;;;;;73.65;17.20;;;;;;;6.21;75.96;103224.72;4947385;28;20042;-59
2022/01/15 03:32:02;;;;;;;74.13;15.95;;;;;;;6.21;75.80;103225.63;4944410;28;20054;-60
2022/01/15 03:34:27;;;;;;;72.68;16.85;;;;;;;6.15;75.91;103221.72;4958282;28;20046;-59
2022/01/15 03:36:52;;;;;;;76.72;16.27;;;;;;;6.09;75.80;103211.84;4955971;28;20047;-61
2022/01/15 03:39:18;;;;;;;69.93;15.75;;;;;;;6.15;75.73;103214.84;4955152;28;20163;-60
2022/01/15 03:41:44;;;;;;;61.00;15.05;;;;;;;5.97;76.04;103206.72;4950386;28;20042;-61
2022/01/15 03:44:10;;;;;;;52.55;14.18;;;;;;;5.88;75.40;103212.94;4957502;28;20049;-60
2022/01/15 03:46:35;;;;;;;60.47;13.88;;;;;;;5.79;76.13;103220.03;4957575;28;20046;-59
2022/01/15 03:49:00;;;;;;;57.50;14.20;;;;;;;5.88;76.10;103213.81;4957572;28;21320;-60
2022/01/15 03:51:26;;;;;;;49.95;13.52;;;;;;;5.83;76.01;103214.25;4951321;28;20747;-63
2022/01/15 03:53:52;;;;;;;56.03;13.98;;;;;;;5.87;75.75;103213.69;4953994;28;20186;-60
2022/01/15 03:56:17;;;;;;;64.30;14.93;;;;;;;5.92;76.03;103215.81;4967165;28;20498;-59
2022/01/15 03:58:43;;;;;;;56.13;13.85;;;;;;;5.86;76.51;103207.59;4954429;28;20526;-59
2022/01/15 04:01:08;;;;;;;62.40;15.00;;;;;;;5.92;76.23;103201.97;4956574;28;20117;-58
2022/01/15 04:03:34;;;;;;;56.08;14.48;;;;;;;6.05;75.58;103209.81;4944213;28;20129;-57
2022/01/15 04:05:59;;;;;;;57.80;14.10;;;;;;;6.08;75.71;103195.41;4959808;28;20049;-60
2022/01/15 04:08:24;;;;;;;67.05;14.73;;;;;;;6.09;75.81;103194.59;4957387;28;20047;-59
2022/01/15 04:10:50;;;;;;;83.18;14.13;;;;;;;5.95;76.13;103182.41;4960939;28;20322;-58
2022/01/15 04:13:15;;;;;;;61.40;14.35;;;;;;;5.91;75.70;103177.81;4952746;28;20031;-61
2022/01/15 04:15:42;;;;;;;66.05;14.85;;;;;;;5.95;75.91;103182.41;4952415;28;20585;-59
2022/01/15 04:18:08;;;;;;;71.40;15.23;;;;;;;5.77;76.17;103181.09;4977916;28;20042;-59
2022/01/15 04:20:33;;;;;;;64.22;14.50;;;;;;;5.88;76.43;103174.09;4959264;28;20460;-57
2022/01/15 04:22:58;;;;;;;76.35;15.65;;;;;;;5.72;76.67;103177.28;4955791;28;20680;-59
2022/01/15 04:25:25;;;;;;;74.35;14.85;;;;;;;5.63;76.36;103179.22;4951921;28;20046;-58
2022/01/15 04:27:51;;;;;;;67.30;15.02;;;;;;;5.88;75.96;103174.09;4951879;28;20139;-59
2022/01/15 04:30:18;;;;;;;63.22;15.30;;;;;;;5.83;76.32;103173.75;4936943;28;20549;-58
2022/01/15 04:32:43;;;;;;;70.93;15.45;;;;;;;5.65;76.75;103165.63;4960061;28;20596;-58
2022/01/15 04:35:09;;;;;;;105.68;15.60;;;;;;;5.48;77.06;103173.00;4959544;28;20507;-59
2022/01/15 04:37:42;;;;;;;73.43;14.95;;;;;;;5.68;76.76;103171.00;4957617;28;20038;-58
2022/01/15 04:40:08;;;;;;;76.90;15.20;;;;;;;5.82;76.10;103161.59;4971620;28;20053;-58
2022/01/15 04:42:35;;;;;;;70.82;14.30;;;;;;;5.67;76.53;103169.19;4959600;28;20060;-58
2022/01/15 04:45:03;;;;;;;70.88;15.07;;;;;;;5.70;76.60;103171.09;4956952;28;20528;-58
2022/01/15 04:47:36;;;;;;;66.22;13.88;;;;;;;5.55;76.92;103157.97;4950402;28;20053;-59
2022/01/15 04:50:08;;;;;;;64.07;14.00;;;;;;;5.67;76.43;103164.00;4957648;28;20046;-57
2022/01/15 04:52:34;;;;;;;82.53;13.02;;;;;;;5.39;77.24;103159.41;4959884;28;20089;-58
2022/01/15 04:55:01;;;;;;;54.50;12.65;;;;;;;5.53;76.73;103159.59;4956917;28;20046;-59
2022/01/15 04:57:26;;;;;;;60.25;11.93;;;;;;;5.52;76.30;103151.72;4952664;28;20046;-61
2022/01/15 04:59:52;;;;;;;70.20;13.05;;;;;;;5.47;76.43;103150.50;4960230;28;20088;-59
2022/01/15 05:02:17;;;;;;;61.65;13.77;;;;;;;5.55;76.39;103147.63;4958598;28;20069;-58
2022/01/15 05:04:42;;;;;;;76.80;12.50;;;;;;;5.48;76.62;103152.28;4960126;28;20470;-59
2022/01/15 05:07:08;;;;;;;65.07;13.57;;;;;;;5.56;76.35;103145.94;4957033;28;20125;-60
2022/01/15 05:09:33;;;;;;;79.28;12.98;;;;;;;5.46;76.45;103141.84;4952926;28;20042;-59
2022/01/15 05:12:08;;;;;;;69.90;12.38;;;;;;;5.48;76.57;103137.69;4955733;28;20394;-58
2022/01/15 05:14:34;;;;;;;84.63;13.02;;;;;;;5.39;76.70;103131.84;4956240;28;20042;-58
2022/01/15 05:16:59;;;;;;;65.28;12.93;;;;;;;5.41;76.58;103137.13;4964568;28;20510;-58
2022/01/15 05:19:24;;;;;;;54.47;12.30;;;;;;;5.42;76.49;103126.91;4957002;28;20129;-59
2022/01/15 05:21:50;;;;;;;72.03;11.93;;;;;;;5.34;76.55;103117.69;4955383;28;20089;-59
2022/01/15 05:24:15;;;;;;;50.72;11.65;;;;;;;4.88;77.10;103122.16;4959216;28;20134;-59
2022/01/15 05:26:41;;;;;;;74.93;12.00;;;;;;;5.00;77.46;103098.00;4952198;28;20042;-60
2022/01/15 05:29:06;;;;;;;58.97;11.70;;;;;;;5.13;76.81;103093.78;4957556;28;20111;-59
2022/01/15 05:31:31;;;;;;;93.15;12.85;;;;;;;4.95;77.12;103097.66;4944923;28;20471;-59
2022/01/15 05:33:57;;;;;;;96.00;13.13;;;;;;;4.95;77.65;103094.19;4957099;28;20122;-59
2022/01/15 05:36:22;;;;;;;81.93;13.73;;;;;;;5.13;77.32;103095.47;4958183;28;20379;-58
2022/01/15 05:38:51;;;;;;;104.20;13.88;;;;;;;5.22;76.60;103094.47;4954511;28;20906;-59
2022/01/15 05:41:17;;;;;;;89.72;13.82;;;;;;;5.21;76.80;103089.16;4950110;28;20514;-59
2022/01/15 05:43:42;;;;;;;92.80;13.80;;;;;;;5.29;76.77;103088.03;4937487;28;20107;-59
2022/01/15 05:46:08;;;;;;;123.43;13.50;;;;;;;5.18;76.60;103076.03;4956763;28;20066;-60
2022/01/15 05:48:33;;;;;;;74.15;13.18;;;;;;;5.25;77.02;103079.13;4953986;28;20177;-58
2022/01/15 05:50:58;;;;;;;84.95;13.35;;;;;;;5.30;76.60;103080.38;4956294;28;20390;-58
2022/01/15 05:53:24;;;;;;;67.70;13.15;;;;;;;5.24;76.52;103074.78;4951933;28;20522;-58
2022/01/15 05:55:49;;;;;;;116.57;13.77;;;;;;;5.13;76.66;103078.28;4951060;28;20120;-59
2022/01/15 05:58:14;;;;;;;76.30;13.15;;;;;;;5.25;76.53;103075.66;4952735;28;20442;-59
2022/01/15 06:00:40;;;;;;;85.93;14.15;;;;;;;5.24;76.70;103071.31;4955230;28;20047;-60
2022/01/15 06:03:05;;;;;;;60.33;13.68;;;;;;;5.30;76.68;103070.03;4963164;28;20050;-58
2022/01/15 06:05:31;;;;;;;75.20;14.32;;;;;;;5.34;76.40;103062.47;4947516;28;20042;-58
2022/01/15 06:07:56;;;;;;;78.32;14.35;;;;;;;5.42;76.46;103062.22;4952679;28;20133;-59
2022/01/15 06:10:22;;;;;;;107.45;14.73;;;;;;;5.14;76.75;103055.91;4962405;28;20196;-58
2022/01/15 06:12:47;;;;;;;103.72;14.68;;;;;;;5.21;76.79;103059.03;4950756;28;20121;-58
2022/01/15 06:15:14;;;;;;;107.05;13.88;;;;;;;5.22;76.59;103053.09;4972352;28;20054;-60
2022/01/15 06:17:39;;;;;;;77.53;14.07;;;;;;;5.28;76.45;103057.78;4952628;28;20486;-59
2022/01/15 06:20:06;;;;;;;96.75;15.38;;;;;;;5.26;76.68;103051.59;4956815;28;20038;-59
2022/01/15 06:22:31;;;;;;;106.03;14.50;;;;;;;5.13;77.22;103052.44;4956659;28;20112;-59
2022/01/15 06:24:57;;;;;;;66.80;13.50;;;;;;;5.31;76.65;103045.03;4950238;28;20042;-60
2022/01/15 06:27:22;;;;;;;80.50;15.05;;;;;;;5.28;76.60;103048.34;4956906;28;20124;-58
2022/01/15 06:29:48;;;;;;;82.43;14.82;;;;;;;5.33;76.48;103051.22;4948785;28;20062;-59
2022/01/15 06:32:13;;;;;;;80.10;15.65;;;;;;;5.40;76.76;103050.88;4960004;28;20107;-59
2022/01/15 06:34:42;;;;;;;68.85;14.60;;;;;;;5.43;76.72;103060.53;4954781;28;20054;-59
2022/01/15 06:37:07;;;;;;;70.88;15.52;;;;;;;5.50;76.27;103057.56;4956474;28;20078;-60
2022/01/15 06:39:33;;;;;;;81.03;15.00;;;;;;;5.36;76.30;103054.06;4952122;28;20623;-58
2022/01/15 06:41:59;;;;;;;109.07;15.07;;;;;;;5.38;76.26;103065.38;4956465;28;20569;-58
2022/01/15 06:44:24;;;;;;;80.50;13.88;;;;;;;5.39;76.18;103055.94;4955576;28;20806;-58
2022/01/15 06:46:50;;;;;;;109.53;14.82;;;;;;;5.15;76.64;103055.13;4955703;28;20046;-59
2022/01/15 06:49:15;;;;;;;72.80;13.50;;;;;;;5.38;75.85;103052.44;4964158;28;20623;-58
2022/01/15 06:51:40;;;;;;;115.93;14.75;;;;;;;5.22;76.29;103049.59;4942692;28;20727;-58
2022/01/15 06:54:06;;;;;;;84.70;13.77;;;;;;;5.32;76.00;103045.16;4957068;28;20259;-60
2022/01/15 06:56:31;;;;;;;111.28;15.20;;;;;;;5.30;75.78;103048.44;4957987;28;20460;-59
2022/01/15 06:58:56;;;;;;;98.25;13.73;;;;;;;5.31;75.84;103048.53;4948886;28;20050;-60
2022/01/15 07:01:23;;;;;;;88.88;13.80;;;;;;;5.32;76.57;103052.03;4956151;28;20409;-58
2022/01/15 07:03:49;;;;;;;98.05;13.43;;;;;;;5.27;76.27;103050.81;4947798;28;20141;-57
2022/01/15 07:06:14;;;;;;;73.63;14.80;;;;;;;5.32;76.22;103049.44;4947605;28;20054;-59
2022/01/15 07:08:39;;;;;;;71.63;15.00;;;;;;;5.33;76.62;103056.41;4953708;28;20054;-60
2022/01/15 07:11:05;;;;;;;109.13;16.20;;;;;;;5.10;77.04;103052.22;4958194;28;20577;-60
2022/01/15 07:13:33;;;;;;;78.90;15.00;;;;;;;5.15;77.21;103057.72;4931523;28;20038;-59
2022/01/15 07:15:58;;;;;;;120.00;16.33;;;;;;;5.11;76.78;103054.03;4951594;28;20065;-59
2022/01/15 07:18:23;;;;;;;120.15;16.70;;;;;;;5.21;77.05;103055.56;4960477;28;20034;-59
2022/01/15 07:20:51;;;;;;;101.55;16.92;;;;;;;5.17;76.91;103049.28;4946900;28;20827;-59
2022/01/15 07:23:17;;;;;;;96.85;16.73;;;;;;;5.30;76.62;103051.94;4956217;28;20047;-58
2022/01/15 07:25:42;;;;;;;90.32;16.75;;;;;;;5.32;76.85;103046.84;4945823;28;20278;-60
2022/01/15 07:28:07;;;;;;;88.25;16.67;;;;;;;5.37;76.49;103044.59;4955080;28;20153;-58
2022/01/15 07:30:33;;;;;;;72.18;16.80;;;;;;;5.39;76.73;103040.41;4958757;28;20035;-58
2022/01/15 07:32:58;;;;;;;122.03;17.58;;;;;;;5.19;76.79;103044.19;4941611;28;20122;-58
2022/01/15 07:35:24;;;;;;;103.32;16.90;;;;;;;5.30;76.83;103040.69;4956676;28;20398;-60
2022/01/15 07:37:50;;;;;;;135.63;17.88;;;;;;;5.18;76.97;103037.25;4949075;28;20165;-58
2022/01/15 07:40:16;;;;;;;55.75;16.20;;;;;;;5.33;76.65;103038.31;4965731;28;20071;-61
2022/01/15 07:42:41;;;;;;;84.57;18.05;;;;;;;5.36;76.95;103042.81;4956170;28;20081;-58
2022/01/15 07:45:13;;;;;;;88.97;18.80;;;;;;;5.32;76.82;103040.00;4962512;28;20047;-60
2022/01/15 07:47:39;;;;;;;107.65;18.65;;;;;;;5.35;76.99;103034.13;4949703;28;20490;-59
2022/01/15 07:50:07;;;;;;;127.38;18.88;;;;;;;5.34;76.48;103039.19;4952125;28;20175;-58
2022/01/15 07:52:32;;;;;;;100.07;19.08;;;;;;;5.13;76.94;103033.44;4963362;28;20042;-58
2022/01/15 07:55:00;;;;;;;77.10;19.17;;;;;;;5.27;76.97;103031.03;4963415;28;20066;-59
2022/01/15 07:57:26;;;;;;;87.13;18.73;;;;;;;5.26;76.73;103036.06;4955152;28;20042;-61
2022/01/15 07:59:51;;;;;;;90.85;17.95;;;;;;;5.16;76.92;103028.47;4937409;28;20046;-59
2022/01/15 08:02:17;;;;;;;110.55;18.50;;;;;;;4.91;76.99;103025.88;4957621;28;20061;-59
2022/01/15 08:04:42;;;;;;;109.00;18.17;;;;;;;4.83;77.83;103022.75;4960342;28;20046;-59
2022/01/15 08:07:09;;;;;;;87.68;19.58;;;;;;;5.06;77.29;103026.06;4958213;28;20443;-59
2022/01/15 08:09:35;;;;;;;67.50;17.23;;;;;;;5.11;77.34;103022.09;4944941;28;20035;-59
2022/01/15 08:12:01;;;;;;;103.63;18.15;;;;;;;5.07;77.09;103023.56;4958814;28;20584;-59
2022/01/15 08:14:26;;;;;;;88.15;18.40;;;;;;;5.26;76.76;103023.16;4953592;28;20524;-59
2022/01/15 08:16:52;;;;;;;98.25;19.10;;;;;;;5.23;77.13;103016.09;4954231;28;20053;-60
2022/01/15 08:19:17;;;;;;;143.60;20.38;;;;;;;5.02;77.29;103014.59;4951200;28;20050;-59
2022/01/15 08:21:43;;;;;;;90.88;19.30;;;;;;;5.17;77.10;103013.09;4948965;28;20778;-58
2022/01/15 08:24:09;;;;;;;107.43;19.30;;;;;;;5.01;77.55;103010.22;4953692;28;20584;-59
2022/01/15 08:26:34;;;;;;;126.53;18.52;;;;;;;4.95;77.69;103002.03;4954227;28;20132;-59
2022/01/15 08:29:00;;;;;;;111.45;19.15;;;;;;;5.08;77.21;103004.69;4958549;28;20267;-58
2022/01/15 08:31:25;;;;;;;115.13;19.05;;;;;;;5.05;77.72;103004.47;4953235;28;20053;-58
2022/01/15 08:33:52;;;;;;;107.18;19.70;;;;;;;5.04;78.09;103004.38;4947970;28;20560;-58
2022/01/15 08:36:17;;;;;;;97.05;19.05;;;;;;;5.20;77.09;103009.78;4960370;28;20046;-58
2022/01/15 08:38:44;;;;;;;106.72;19.92;;;;;;;5.26;76.72;103002.47;4954183;28;20561;-60
2022/01/15 08:41:12;;;;;;;121.15;19.77;;;;;;;5.11;77.50;103012.66;4957720;28;20322;-58
2022/01/15 08:43:38;;;;;;;107.07;18.70;;;;;;;4.95;77.71;102998.53;4946201;28;20045;-58
2022/01/15 08:46:03;;;;;;;91.38;19.33;;;;;;;5.25;77.44;102998.06;4958763;28;20422;-59
2022/01/15 08:48:29;;;;;;;118.55;20.88;;;;;;;5.23;77.12;102998.00;4951751;28;20042;-59
2022/01/15 08:50:54;;;;;;;127.85;21.67;;;;;;;5.20;77.05;102999.44;4949362;28;20039;-58
2022/01/15 08:53:21;;;;;;;113.30;20.65;;;;;;;5.32;77.20;102989.94;4957172;28;20053;-58
2022/01/15 08:55:47;;;;;;;138.60;21.30;;;;;;;5.36;77.16;102993.66;4952503;28;20490;-58
2022/01/15 08:58:13;;;;;;;152.48;21.60;;;;;;;5.07;77.77;103002.88;4949866;28;20165;-59
2022/01/15 09:00:38;;;;;;;141.55;21.55;;;;;;;5.21;77.59;102996.97;4945943;28;20528;-60
2022/01/15 09:03:06;;;;;;;99.75;20.80;;;;;;;5.27;77.51;103001.66;4964041;28;20853;-59
2022/01/15 09:05:34;;;;;;;100.45;21.52;;;;;;;5.26;77.80;102999.88;4944498;28;20371;-58
2022/01/15 09:07:59;;;;;;;111.35;21.35;;;;;;;5.38;77.58;103005.88;4959361;28;20035;-58
2022/01/15 09:10:24;;;;;;;132.63;20.95;;;;;;;5.20;77.88;103004.63;4960247;28;20046;-59
2022/01/15 09:12:50;;;;;;;136.45;21.73;;;;;;;5.37;77.42;103001.50;4957408;28;20073;-59
2022/01/15 09:15:16;;;;;;;133.30;20.48;;;;;;;5.26;77.56;103000.78;4962651;28;20046;-59
2022/01/15 09:17:42;;;;;;;109.00;21.77;;;;;;;5.24;77.70;103004.06;4950505;28;20893;-59
2022/01/15 09:20:08;;;;;;;127.30;20.85;;;;;;;5.38;77.41;103000.72;4955776;28;20049;-59
2022/01/15 09:22:33;;;;;;;141.77;20.75;;;;;;;5.42;77.31;102997.56;4956613;28;20166;-59
2022/01/15 09:25:00;;;;;;;110.80;19.77;;;;;;;5.42;77.05;102992.38;4959354;28;20072;-58
2022/01/15 09:30:13;;;;;;;123.32;21.90;;;;;;;5.51;77.43;102994.69;4955530;28;20194;-60
2022/01/15 09:32:50;;;;;;;94.10;19.20;;;;;;;5.50;77.17;103004.13;4953179;28;20046;-59
2022/01/15 09:35:22;;;;;;;108.75;19.35;;;;;;;5.47;77.17;102995.28;4955888;28;20048;-59
2022/01/15 09:37:49;;;;;;;117.65;20.55;;;;;;;5.39;77.69;103002.50;4943109;28;20410;-59
2022/01/15 09:40:15;;;;;;;120.07;20.30;;;;;;;5.47;77.23;102998.75;4959999;28;20406;-59
2022/01/15 09:42:44;;;;;;;98.18;20.33;;;;;;;5.60;77.07;103001.38;4959434;28;20038;-59
2022/01/15 09:45:11;;;;;;;102.90;19.65;;;;;;;5.59;77.19;103002.19;4958099;28;20138;-58
2022/01/15 09:47:36;;;;;;;120.25;19.58;;;;;;;5.35;78.10;102997.03;4950106;28;20038;-58
2022/01/15 09:50:07;;;;;;;92.72;19.75;;;;;;;5.57;77.46;103003.75;4956853;28;20108;-59
2022/01/15 09:52:33;;;;;;;84.55;18.88;;;;;;;5.75;76.37;103003.19;4945514;28;20050;-60
2022/01/15 09:54:59;;;;;;;89.70;18.85;;;;;;;5.69;76.68;103004.56;4957439;28;20039;-60
2022/01/15 09:57:25;;;;;;;83.63;17.55;;;;;;;5.79;76.15;102997.44;4943980;28;20133;-59
2022/01/15 09:59:50;;;;;;;99.47;19.80;;;;;;;5.62;76.41;102993.69;4944288;28;20051;-59
2022/01/15 10:02:16;;;;;;;74.28;17.95;;;;;;;5.73;76.25;103000.53;4953592;28;20506;-59
2022/01/15 10:04:42;;;;;;;72.15;17.38;;;;;;;5.62;76.00;103001.47;4961362;28;20123;-60
2022/01/15 10:07:13;;;;;;;74.03;16.75;;;;;;;5.33;77.01;102991.75;4956911;28;20042;-60
2022/01/15 10:09:39;;;;;;;67.95;17.15;;;;;;;5.46;76.39;102996.97;4949790;28;20100;-61
2022/01/15 10:12:06;;;;;;;69.25;17.42;;;;;;;5.29;76.67;102990.66;4954945;28;20310;-59
2022/01/15 10:14:32;;;;;;;75.55;18.17;;;;;;;5.39;77.04;102994.75;4975526;28;20498;-60
2022/01/15 10:17:00;;;;;;;79.20;17.80;;;;;;;5.43;77.00;102983.81;4964666;28;20048;-59
2022/01/15 10:19:31;;;;;;;74.35;18.50;;;;;;;5.58;76.15;102982.25;4954404;28;20057;-61
2022/01/15 10:22:05;;;;;;;70.95;18.23;;;;;;;5.63;76.41;102980.88;4958811;28;20050;-59
2022/01/15 10:24:31;;;;;;;73.43;18.60;;;;;;;5.76;76.19;102986.88;4956222;28;20371;-60
2022/01/15 10:27:16;;;;;;;67.97;17.17;;;;;;;5.65;76.33;102984.47;4934617;28;20319;-60
2022/01/15 10:29:41;;;;;;;80.05;18.60;;;;;;;5.63;76.20;102990.31;4944712;28;20647;-59
2022/01/15 10:32:12;;;;;;;67.80;18.08;;;;;;;5.89;75.56;102986.91;4954621;28;20077;-59
2022/01/15 10:34:38;;;;;;;79.85;18.63;;;;;;;6.03;75.50;102980.97;4951167;28;20518;-60
2022/01/15 10:37:14;;;;;;;65.78;17.70;;;;;;;6.02;75.65;102982.66;4967676;28;20568;-62
2022/01/15 10:39:41;;;;;;;58.92;17.30;;;;;;;5.98;74.95;102977.16;4950267;28;20047;-60
2022/01/15 10:42:19;;;;;;;65.05;17.50;;;;;;;5.91;75.19;102981.06;4952073;28;20531;-59
2022/01/15 10:44:45;;;;;;;58.47;17.58;;;;;;;5.94;74.96;102981.25;4975640;28;20102;-60
2022/01/15 10:47:18;;;;;;;59.00;17.52;;;;;;;5.84;75.08;102977.94;4957192;28;20056;-61
2022/01/15 10:49:44;;;;;;;55.30;17.77;;;;;;;5.97;74.40;102971.09;4945645;28;20052;-59
2022/01/15 10:52:20;;;;;;;54.78;16.65;;;;;;;6.05;74.40;102981.94;4954041;28;20152;-60
2022/01/15 10:55:16;;;;;;;59.17;17.17;;;;;;;5.90;74.70;102973.19;4956071;28;20057;-60
2022/01/15 10:57:44;;;;;;;59.78;17.67;;;;;;;5.92;74.99;102968.97;4941948;28;20069;-60
2022/01/15 11:00:25;;;;;;;54.83;17.50;;;;;;;6.06;74.71;102963.03;4953984;28;20346;-60
2022/01/15 11:02:55;;;;;;;60.40;17.17;;;;;;;6.09;74.56;102961.53;4961583;28;20453;-59
2022/01/15 11:05:25;;;;;;;52.28;15.77;;;;;;;6.24;74.04;102965.91;4953183;28;20050;-59
2022/01/15 11:08:11;;;;;;;51.85;16.40;;;;;;;6.25;72.86;102962.50;4946795;28;20770;-60
2022/01/15 11:10:41;;;;;;;50.88;16.30;;;;;;;6.33;73.04;102956.13;4949372;28;20053;-61
2022/01/15 11:13:10;;;;;;;46.95;15.90;;;;;;;6.33;72.97;102961.31;4952011;28;20569;-59
2022/01/15 11:15:36;;;;;;;42.22;15.73;;;;;;;6.25;72.74;102963.41;4945564;28;20714;-59
2022/01/15 11:18:03;;;;;;;44.15;15.55;;;;;;;6.11;72.67;102956.44;4957217;28;20109;-61
2022/01/15 11:20:33;;;;;;;47.88;16.42;;;;;;;5.86;73.48;102953.00;4956721;28;20615;-59
2022/01/15 11:23:02;;;;;;;50.00;16.52;;;;;;;5.97;73.33;102945.22;4954024;28;20274;-59
2022/01/15 11:25:28;;;;;;;53.80;16.63;;;;;;;6.18;73.07;102939.59;4942171;28;20601;-60
2022/01/15 11:27:55;;;;;;;52.35;16.30;;;;;;;6.20;73.30;102945.78;4953946;28;20693;-60
2022/01/15 11:30:21;;;;;;;51.15;16.85;;;;;;;6.19;72.92;102941.41;4956847;28;20586;-58